Αρχική σελίδα
METAR-TAF:

METAR-TAF

Αεροδρόμια :

Davis, Καλιφόρνια, Ηνωμένες Πολιτείες Αμερικής

γεωγραφικό πλάτος: 38-31-53N, γεωγραφικό μήκος: 121-47-11W, υψόμετρο: 21 μ

Παρών καιρός

Η αναφορά έγινε 11 λεπτά πριν, στις 10:55 UTC
Ήπιος άνεμος
Θερμοκρασία 12°C
Υγρασία 82%
Πίεση 1011 hPa
Ορατότητα: 12.9 χλμ
Καθαρός ουρανός

METAR: KEDU 191055Z AUTO 00000KT 8SM CLR 12/09 A2985 RMK AO1

Χρόνος: 04:06 (11:06 UTC)


TAF: λείπει

Μετεωρολογικές αναφορές και προγνώσεις για περισσότερα από 4000 αεροδρόμια (δελτία METAR και TAF).

Οι διαθέσιμοι σταθμοί απεικονίζονται στο χάρτη με κίτρινες και κόκκινες κουκκίδες.

Μετακινήστε το ποντίκι πάνω από τις κουκκίδες για να δείτε το όνομα του σταθμού.

Στη συνέχεια, κάντε κλικ για να δείτε τις μετεωρολογικές αναφορές και τις προγνώσεις καιρού.

Για να αλλάξετε το χάρτη: κάντε κλικ στα πράσινα κουμπιά με τον μαύρο σταυρό για να ζουμάρετε, στο πράσινο κουμπί με την παύλα για να αφαιρέσετε το ζουμ ή στα πράσινα βέλη για να αντιπαραβάλλετε χάρτες.


METAR-TAF: